sensor_id;sensor_type;location;lat;lon;timestamp;P1;durP1;ratioP1;P2;durP2;ratioP2
54458;SDS011;40368;49.350;8.152;2024-03-17T00:00:47;18;;;30;;
54458;SDS011;40368;49.350;8.152;2024-03-17T00:01:47;15;;;22;;
54458;SDS011;40368;49.350;8.152;2024-03-17T00:02:47;18;;;36;;
54458;SDS011;40368;49.350;8.152;2024-03-17T00:03:47;21;;;56;;
54458;SDS011;40368;49.350;8.152;2024-03-17T00:04:47;18;;;46;;
54458;SDS011;40368;49.350;8.152;2024-03-17T00:05:47;18;;;50;;
54458;SDS011;40368;49.350;8.152;2024-03-17T00:06:47;18;;;32;;
54458;SDS011;40368;49.350;8.152;2024-03-17T00:07:47;17;;;31;;
54458;SDS011;40368;49.350;8.152;2024-03-17T00:08:47;18;;;28;;
54458;SDS011;40368;49.350;8.152;2024-03-17T00:09:47;18;;;44;;
54458;SDS011;40368;49.350;8.152;2024-03-17T00:10:49;19;;;41;;
54458;SDS011;40368;49.350;8.152;2024-03-17T00:11:47;19;;;39;;
54458;SDS011;40368;49.350;8.152;2024-03-17T00:12:47;17;;;53;;
54458;SDS011;40368;49.350;8.152;2024-03-17T00:13:47;20;;;29;;
54458;SDS011;40368;49.350;8.152;2024-03-17T00:14:47;18;;;28;;
54458;SDS011;40368;49.350;8.152;2024-03-17T00:15:47;17;;;28;;
54458;SDS011;40368;49.350;8.152;2024-03-17T00:16:47;19;;;54;;
54458;SDS011;40368;49.350;8.152;2024-03-17T00:17:47;19;;;30;;
54458;SDS011;40368;49.350;8.152;2024-03-17T00:18:47;17;;;32;;
54458;SDS011;40368;49.350;8.152;2024-03-17T00:19:47;19;;;32;;
54458;SDS011;40368;49.350;8.152;2024-03-17T00:20:47;24;;;51;;
54458;SDS011;40368;49.350;8.152;2024-03-17T00:21:47;22;;;37;;
54458;SDS011;40368;49.350;8.152;2024-03-17T00:22:48;21;;;48;;
54458;SDS011;40368;49.350;8.152;2024-03-17T00:23:47;21;;;33;;
54458;SDS011;40368;49.350;8.152;2024-03-17T00:24:47;21;;;47;;
54458;SDS011;40368;49.350;8.152;2024-03-17T00:25:47;21;;;48;;
54458;SDS011;40368;49.350;8.152;2024-03-17T00:26:47;21;;;50;;
54458;SDS011;40368;49.350;8.152;2024-03-17T00:27:47;20;;;36;;
54458;SDS011;40368;49.350;8.152;2024-03-17T00:28:47;19;;;34;;
54458;SDS011;40368;49.350;8.152;2024-03-17T00:29:47;27;;;104;;
54458;SDS011;40368;49.350;8.152;2024-03-17T00:30:47;20;;;34;;
54458;SDS011;40368;49.350;8.152;2024-03-17T00:31:47;19;;;38;;
54458;SDS011;40368;49.350;8.152;2024-03-17T00:32:47;20;;;45;;
54458;SDS011;40368;49.350;8.152;2024-03-17T00:33:47;18;;;34;;
54458;SDS011;40368;49.350;8.152;2024-03-17T00:34:47;20;;;47;;
54458;SDS011;40368;49.350;8.152;2024-03-17T00:35:47;18;;;31;;
54458;SDS011;40368;49.350;8.152;2024-03-17T00:36:47;16;;;29;;
54458;SDS011;40368;49.350;8.152;2024-03-17T00:37:47;18;;;39;;
54458;SDS011;40368;49.350;8.152;2024-03-17T00:38:47;19;;;33;;
54458;SDS011;40368;49.350;8.152;2024-03-17T00:39:47;15;;;22;;
54458;SDS011;40368;49.350;8.152;2024-03-17T00:40:47;16;;;28;;
54458;SDS011;40368;49.350;8.152;2024-03-17T00:41:47;16;;;30;;
54458;SDS011;40368;49.350;8.152;2024-03-17T00:42:47;19;;;43;;
54458;SDS011;40368;49.350;8.152;2024-03-17T00:43:47;16;;;29;;
54458;SDS011;40368;49.350;8.152;2024-03-17T00:44:47;18;;;41;;
54458;SDS011;40368;49.350;8.152;2024-03-17T00:45:51;18;;;34;;
54458;SDS011;40368;49.350;8.152;2024-03-17T00:46:47;19;;;31;;
54458;SDS011;40368;49.350;8.152;2024-03-17T00:47:47;17;;;41;;
54458;SDS011;40368;49.350;8.152;2024-03-17T00:48:47;16;;;32;;
54458;SDS011;40368;49.350;8.152;2024-03-17T00:49:47;18;;;30;;
54458;SDS011;40368;49.350;8.152;2024-03-17T00:50:53;19;;;67;;
54458;SDS011;40368;49.350;8.152;2024-03-17T00:51:47;18;;;61;;
54458;SDS011;40368;49.350;8.152;2024-03-17T00:52:47;15;;;24;;
54458;SDS011;40368;49.350;8.152;2024-03-17T00:53:47;17;;;30;;
54458;SDS011;40368;49.350;8.152;2024-03-17T00:54:47;17;;;26;;
54458;SDS011;40368;49.350;8.152;2024-03-17T00:55:50;14;;;18;;
54458;SDS011;40368;49.350;8.152;2024-03-17T00:56:47;16;;;43;;
54458;SDS011;40368;49.350;8.152;2024-03-17T00:57:47;16;;;30;;
54458;SDS011;40368;49.350;8.152;2024-03-17T00:58:47;16;;;27;;
54458;SDS011;40368;49.350;8.152;2024-03-17T00:59:47;17;;;47;;
54458;SDS011;40368;49.350;8.152;2024-03-17T01:00:47;18;;;39;;
54458;SDS011;40368;49.350;8.152;2024-03-17T01:01:47;17;;;35;;
54458;SDS011;40368;49.350;8.152;2024-03-17T01:02:47;16;;;32;;
54458;SDS011;40368;49.350;8.152;2024-03-17T01:03:47;14;;;16;;
54458;SDS011;40368;49.350;8.152;2024-03-17T01:04:47;16;;;28;;
54458;SDS011;40368;49.350;8.152;2024-03-17T01:05:47;16;;;31;;
54458;SDS011;40368;49.350;8.152;2024-03-17T01:06:47;17;;;31;;
54458;SDS011;40368;49.350;8.152;2024-03-17T01:07:47;15;;;35;;
54458;SDS011;40368;49.350;8.152;2024-03-17T01:08:47;17;;;32;;
54458;SDS011;40368;49.350;8.152;2024-03-17T01:09:47;17;;;53;;
54458;SDS011;40368;49.350;8.152;2024-03-17T01:10:47;17;;;28;;
54458;SDS011;40368;49.350;8.152;2024-03-17T01:11:47;17;;;28;;
54458;SDS011;40368;49.350;8.152;2024-03-17T01:12:47;19;;;49;;
54458;SDS011;40368;49.350;8.152;2024-03-17T01:13:47;18;;;37;;
54458;SDS011;40368;49.350;8.152;2024-03-17T01:14:47;19;;;46;;
54458;SDS011;40368;49.350;8.152;2024-03-17T01:15:50;14;;;23;;
54458;SDS011;40368;49.350;8.152;2024-03-17T01:16:47;16;;;35;;
54458;SDS011;40368;49.350;8.152;2024-03-17T01:17:47;15;;;25;;
54458;SDS011;40368;49.350;8.152;2024-03-17T01:18:47;15;;;41;;
54458;SDS011;40368;49.350;8.152;2024-03-17T01:19:47;17;;;39;;
54458;SDS011;40368;49.350;8.152;2024-03-17T01:20:47;18;;;37;;
54458;SDS011;40368;49.350;8.152;2024-03-17T01:21:47;17;;;31;;
54458;SDS011;40368;49.350;8.152;2024-03-17T01:22:47;17;;;37;;
54458;SDS011;40368;49.350;8.152;2024-03-17T01:23:47;16;;;31;;
54458;SDS011;40368;49.350;8.152;2024-03-17T01:24:47;18;;;35;;
54458;SDS011;40368;49.350;8.152;2024-03-17T01:25:47;16;;;35;;
54458;SDS011;40368;49.350;8.152;2024-03-17T01:26:47;18;;;32;;
54458;SDS011;40368;49.350;8.152;2024-03-17T01:27:47;15;;;22;;
54458;SDS011;40368;49.350;8.152;2024-03-17T01:28:47;17;;;22;;
54458;SDS011;40368;49.350;8.152;2024-03-17T01:29:47;19;;;46;;
54458;SDS011;40368;49.350;8.152;2024-03-17T01:30:48;18;;;39;;
54458;SDS011;40368;49.350;8.152;2024-03-17T01:31:47;18;;;38;;
54458;SDS011;40368;49.350;8.152;2024-03-17T01:32:47;16;;;37;;
54458;SDS011;40368;49.350;8.152;2024-03-17T01:33:47;16;;;43;;
54458;SDS011;40368;49.350;8.152;2024-03-17T01:34:47;16;;;49;;
54458;SDS011;40368;49.350;8.152;2024-03-17T01:35:47;17;;;33;;
54458;SDS011;40368;49.350;8.152;2024-03-17T01:36:47;16;;;34;;
54458;SDS011;40368;49.350;8.152;2024-03-17T01:37:47;14;;;23;;
54458;SDS011;40368;49.350;8.152;2024-03-17T01:38:47;15;;;53;;
54458;SDS011;40368;49.350;8.152;2024-03-17T01:39:47;15;;;31;;
54458;SDS011;40368;49.350;8.152;2024-03-17T01:40:47;15;;;20;;
54458;SDS011;40368;49.350;8.152;2024-03-17T01:41:47;13;;;19;;
54458;SDS011;40368;49.350;8.152;2024-03-17T01:42:48;14;;;27;;
54458;SDS011;40368;49.350;8.152;2024-03-17T01:43:48;15;;;38;;
54458;SDS011;40368;49.350;8.152;2024-03-17T01:44:48;13;;;25;;
54458;SDS011;40368;49.350;8.152;2024-03-17T01:45:48;14;;;22;;
54458;SDS011;40368;49.350;8.152;2024-03-17T01:46:47;15;;;26;;
54458;SDS011;40368;49.350;8.152;2024-03-17T01:47:49;15;;;30;;
54458;SDS011;40368;49.350;8.152;2024-03-17T01:48:47;13;;;35;;
54458;SDS011;40368;49.350;8.152;2024-03-17T01:49:49;15;;;32;;
54458;SDS011;40368;49.350;8.152;2024-03-17T01:50:53;13;;;19;;
54458;SDS011;40368;49.350;8.152;2024-03-17T01:51:50;14;;;29;;
54458;SDS011;40368;49.350;8.152;2024-03-17T01:52:48;14;;;35;;
54458;SDS011;40368;49.350;8.152;2024-03-17T01:53:48;18;;;35;;
54458;SDS011;40368;49.350;8.152;2024-03-17T01:54:49;15;;;39;;
54458;SDS011;40368;49.350;8.152;2024-03-17T01:55:49;20;;;29;;
54458;SDS011;40368;49.350;8.152;2024-03-17T01:56:47;20;;;39;;
54458;SDS011;40368;49.350;8.152;2024-03-17T01:57:47;15;;;31;;
54458;SDS011;40368;49.350;8.152;2024-03-17T01:58:47;18;;;40;;
54458;SDS011;40368;49.350;8.152;2024-03-17T01:59:47;15;;;19;;
54458;SDS011;40368;49.350;8.152;2024-03-17T02:00:47;16;;;35;;
54458;SDS011;40368;49.350;8.152;2024-03-17T02:01:47;18;;;46;;
54458;SDS011;40368;49.350;8.152;2024-03-17T02:02:47;18;;;31;;
54458;SDS011;40368;49.350;8.152;2024-03-17T02:03:47;15;;;21;;
54458;SDS011;40368;49.350;8.152;2024-03-17T02:04:47;17;;;35;;
54458;SDS011;40368;49.350;8.152;2024-03-17T02:05:47;18;;;38;;
54458;SDS011;40368;49.350;8.152;2024-03-17T02:06:47;17;;;31;;
54458;SDS011;40368;49.350;8.152;2024-03-17T02:07:47;17;;;35;;
54458;SDS011;40368;49.350;8.152;2024-03-17T02:08:47;15;;;37;;
54458;SDS011;40368;49.350;8.152;2024-03-17T02:09:47;16;;;44;;
54458;SDS011;40368;49.350;8.152;2024-03-17T02:10:50;15;;;32;;
54458;SDS011;40368;49.350;8.152;2024-03-17T02:11:47;14;;;31;;
54458;SDS011;40368;49.350;8.152;2024-03-17T02:12:47;15;;;51;;
54458;SDS011;40368;49.350;8.152;2024-03-17T02:13:47;18;;;33;;
54458;SDS011;40368;49.350;8.152;2024-03-17T02:14:47;17;;;40;;
54458;SDS011;40368;49.350;8.152;2024-03-17T02:15:47;18;;;40;;
54458;SDS011;40368;49.350;8.152;2024-03-17T02:16:47;17;;;24;;
54458;SDS011;40368;49.350;8.152;2024-03-17T02:17:47;16;;;29;;
54458;SDS011;40368;49.350;8.152;2024-03-17T02:18:47;15;;;34;;
54458;SDS011;40368;49.350;8.152;2024-03-17T02:19:47;20;;;38;;
54458;SDS011;40368;49.350;8.152;2024-03-17T02:20:47;18;;;35;;
54458;SDS011;40368;49.350;8.152;2024-03-17T02:21:47;17;;;50;;
54458;SDS011;40368;49.350;8.152;2024-03-17T02:22:47;19;;;46;;
54458;SDS011;40368;49.350;8.152;2024-03-17T02:23:47;17;;;27;;
54458;SDS011;40368;49.350;8.152;2024-03-17T02:24:47;20;;;38;;
54458;SDS011;40368;49.350;8.152;2024-03-17T02:25:47;20;;;40;;
54458;SDS011;40368;49.350;8.152;2024-03-17T02:26:47;16;;;29;;
54458;SDS011;40368;49.350;8.152;2024-03-17T02:27:47;18;;;29;;
54458;SDS011;40368;49.350;8.152;2024-03-17T02:28:47;16;;;31;;
54458;SDS011;40368;49.350;8.152;2024-03-17T02:29:47;18;;;42;;
54458;SDS011;40368;49.350;8.152;2024-03-17T02:30:47;18;;;33;;
54458;SDS011;40368;49.350;8.152;2024-03-17T02:31:47;19;;;36;;
54458;SDS011;40368;49.350;8.152;2024-03-17T02:32:51;16;;;47;;
54458;SDS011;40368;49.350;8.152;2024-03-17T02:33:47;19;;;64;;
54458;SDS011;40368;49.350;8.152;2024-03-17T02:34:48;24;;;85;;
54458;SDS011;40368;49.350;8.152;2024-03-17T02:35:47;32;;;110;;
54458;SDS011;40368;49.350;8.152;2024-03-17T02:36:47;48;;;234;;
54458;SDS011;40368;49.350;8.152;2024-03-17T02:37:47;42;;;166;;
54458;SDS011;40368;49.350;8.152;2024-03-17T02:38:47;40;;;190;;
54458;SDS011;40368;49.350;8.152;2024-03-17T02:39:47;34;;;203;;
54458;SDS011;40368;49.350;8.152;2024-03-17T02:40:47;27;;;161;;
54458;SDS011;40368;49.350;8.152;2024-03-17T02:41:47;30;;;169;;
54458;SDS011;40368;49.350;8.152;2024-03-17T02:42:47;22;;;109;;
54458;SDS011;40368;49.350;8.152;2024-03-17T02:43:47;18;;;52;;
54458;SDS011;40368;49.350;8.152;2024-03-17T02:45:47;21;;;86;;
54458;SDS011;40368;49.350;8.152;2024-03-17T02:46:47;19;;;61;;
54458;SDS011;40368;49.350;8.152;2024-03-17T02:47:47;20;;;62;;
54458;SDS011;40368;49.350;8.152;2024-03-17T02:48:48;26;;;54;;
54458;SDS011;40368;49.350;8.152;2024-03-17T02:49:47;20;;;51;;
54458;SDS011;40368;49.350;8.152;2024-03-17T02:50:47;19;;;51;;
54458;SDS011;40368;49.350;8.152;2024-03-17T02:51:47;16;;;31;;
54458;SDS011;40368;49.350;8.152;2024-03-17T02:52:47;21;;;59;;
54458;SDS011;40368;49.350;8.152;2024-03-17T02:53:48;48;;;204;;
54458;SDS011;40368;49.350;8.152;2024-03-17T02:54:47;34;;;123;;
54458;SDS011;40368;49.350;8.152;2024-03-17T02:55:47;33;;;150;;
54458;SDS011;40368;49.350;8.152;2024-03-17T02:56:47;31;;;113;;
54458;SDS011;40368;49.350;8.152;2024-03-17T02:57:47;27;;;121;;
54458;SDS011;40368;49.350;8.152;2024-03-17T02:58:47;27;;;148;;
54458;SDS011;40368;49.350;8.152;2024-03-17T02:59:47;24;;;84;;
54458;SDS011;40368;49.350;8.152;2024-03-17T03:00:47;31;;;117;;
54458;SDS011;40368;49.350;8.152;2024-03-17T03:01:47;37;;;168;;
54458;SDS011;40368;49.350;8.152;2024-03-17T03:02:47;21;;;99;;
54458;SDS011;40368;49.350;8.152;2024-03-17T03:03:47;19;;;79;;
54458;SDS011;40368;49.350;8.152;2024-03-17T03:04:47;17;;;31;;
54458;SDS011;40368;49.350;8.152;2024-03-17T03:05:47;21;;;42;;
54458;SDS011;40368;49.350;8.152;2024-03-17T03:06:47;21;;;43;;
54458;SDS011;40368;49.350;8.152;2024-03-17T03:07:47;16;;;38;;
54458;SDS011;40368;49.350;8.152;2024-03-17T03:08:47;17;;;58;;
54458;SDS011;40368;49.350;8.152;2024-03-17T03:09:47;18;;;34;;
54458;SDS011;40368;49.350;8.152;2024-03-17T03:10:47;18;;;42;;
54458;SDS011;40368;49.350;8.152;2024-03-17T03:11:47;19;;;39;;
54458;SDS011;40368;49.350;8.152;2024-03-17T03:12:47;19;;;33;;
54458;SDS011;40368;49.350;8.152;2024-03-17T03:13:47;19;;;48;;
54458;SDS011;40368;49.350;8.152;2024-03-17T03:14:47;16;;;30;;
54458;SDS011;40368;49.350;8.152;2024-03-17T03:15:47;21;;;61;;
54458;SDS011;40368;49.350;8.152;2024-03-17T03:16:47;19;;;41;;
54458;SDS011;40368;49.350;8.152;2024-03-17T03:17:47;17;;;34;;
54458;SDS011;40368;49.350;8.152;2024-03-17T03:18:47;18;;;26;;
54458;SDS011;40368;49.350;8.152;2024-03-17T03:19:47;15;;;20;;
54458;SDS011;40368;49.350;8.152;2024-03-17T03:20:50;17;;;49;;
54458;SDS011;40368;49.350;8.152;2024-03-17T03:21:47;16;;;30;;
54458;SDS011;40368;49.350;8.152;2024-03-17T03:22:47;17;;;37;;
54458;SDS011;40368;49.350;8.152;2024-03-17T03:23:47;17;;;42;;
54458;SDS011;40368;49.350;8.152;2024-03-17T03:24:47;18;;;38;;
54458;SDS011;40368;49.350;8.152;2024-03-17T03:25:47;18;;;38;;
54458;SDS011;40368;49.350;8.152;2024-03-17T03:26:47;16;;;44;;
54458;SDS011;40368;49.350;8.152;2024-03-17T03:27:47;18;;;37;;
54458;SDS011;40368;49.350;8.152;2024-03-17T03:28:47;19;;;46;;
54458;SDS011;40368;49.350;8.152;2024-03-17T03:29:47;19;;;35;;
54458;SDS011;40368;49.350;8.152;2024-03-17T03:30:47;19;;;40;;
54458;SDS011;40368;49.350;8.152;2024-03-17T03:31:47;20;;;37;;
54458;SDS011;40368;49.350;8.152;2024-03-17T03:32:47;19;;;60;;
54458;SDS011;40368;49.350;8.152;2024-03-17T03:33:47;18;;;43;;
54458;SDS011;40368;49.350;8.152;2024-03-17T03:34:47;19;;;35;;
54458;SDS011;40368;49.350;8.152;2024-03-17T03:35:47;19;;;41;;
54458;SDS011;40368;49.350;8.152;2024-03-17T03:36:47;20;;;38;;
54458;SDS011;40368;49.350;8.152;2024-03-17T03:37:47;20;;;45;;
54458;SDS011;40368;49.350;8.152;2024-03-17T03:38:47;18;;;58;;
54458;SDS011;40368;49.350;8.152;2024-03-17T03:39:47;18;;;36;;
54458;SDS011;40368;49.350;8.152;2024-03-17T03:40:47;16;;;27;;
54458;SDS011;40368;49.350;8.152;2024-03-17T03:41:47;20;;;46;;
54458;SDS011;40368;49.350;8.152;2024-03-17T03:42:47;16;;;33;;
54458;SDS011;40368;49.350;8.152;2024-03-17T03:43:47;18;;;45;;
54458;SDS011;40368;49.350;8.152;2024-03-17T03:44:48;16;;;33;;
54458;SDS011;40368;49.350;8.152;2024-03-17T03:45:47;18;;;36;;
54458;SDS011;40368;49.350;8.152;2024-03-17T03:46:47;16;;;24;;
54458;SDS011;40368;49.350;8.152;2024-03-17T03:47:47;17;;;31;;
54458;SDS011;40368;49.350;8.152;2024-03-17T03:48:47;16;;;32;;
54458;SDS011;40368;49.350;8.152;2024-03-17T03:49:47;18;;;38;;
54458;SDS011;40368;49.350;8.152;2024-03-17T03:50:47;16;;;25;;
54458;SDS011;40368;49.350;8.152;2024-03-17T03:51:47;18;;;33;;
54458;SDS011;40368;49.350;8.152;2024-03-17T03:52:47;17;;;33;;
54458;SDS011;40368;49.350;8.152;2024-03-17T03:53:48;17;;;23;;
54458;SDS011;40368;49.350;8.152;2024-03-17T03:54:48;19;;;35;;
54458;SDS011;40368;49.350;8.152;2024-03-17T03:55:48;18;;;37;;
54458;SDS011;40368;49.350;8.152;2024-03-17T03:56:47;19;;;35;;
54458;SDS011;40368;49.350;8.152;2024-03-17T03:57:47;19;;;45;;
54458;SDS011;40368;49.350;8.152;2024-03-17T03:58:48;17;;;40;;
54458;SDS011;40368;49.350;8.152;2024-03-17T03:59:47;17;;;32;;
54458;SDS011;40368;49.350;8.152;2024-03-17T04:01:47;18;;;53;;
54458;SDS011;40368;49.350;8.152;2024-03-17T04:02:48;18;;;37;;
54458;SDS011;40368;49.350;8.152;2024-03-17T04:03:47;18;;;34;;
54458;SDS011;40368;49.350;8.152;2024-03-17T04:04:47;20;;;34;;
54458;SDS011;40368;49.350;8.152;2024-03-17T04:05:47;18;;;35;;
54458;SDS011;40368;49.350;8.152;2024-03-17T04:06:47;18;;;42;;
54458;SDS011;40368;49.350;8.152;2024-03-17T04:07:47;16;;;24;;
54458;SDS011;40368;49.350;8.152;2024-03-17T04:08:47;17;;;44;;
54458;SDS011;40368;49.350;8.152;2024-03-17T04:09:47;19;;;42;;
54458;SDS011;40368;49.350;8.152;2024-03-17T04:10:47;20;;;50;;
54458;SDS011;40368;49.350;8.152;2024-03-17T04:11:47;17;;;33;;
54458;SDS011;40368;49.350;8.152;2024-03-17T04:12:47;18;;;35;;
54458;SDS011;40368;49.350;8.152;2024-03-17T04:13:47;19;;;45;;
54458;SDS011;40368;49.350;8.152;2024-03-17T04:14:47;18;;;43;;
54458;SDS011;40368;49.350;8.152;2024-03-17T04:15:47;17;;;29;;
54458;SDS011;40368;49.350;8.152;2024-03-17T04:16:47;20;;;41;;
54458;SDS011;40368;49.350;8.152;2024-03-17T04:17:47;18;;;31;;
54458;SDS011;40368;49.350;8.152;2024-03-17T04:18:47;20;;;36;;
54458;SDS011;40368;49.350;8.152;2024-03-17T04:19:47;18;;;31;;
54458;SDS011;40368;49.350;8.152;2024-03-17T04:20:47;19;;;44;;
54458;SDS011;40368;49.350;8.152;2024-03-17T04:21:47;17;;;33;;
54458;SDS011;40368;49.350;8.152;2024-03-17T04:22:47;17;;;47;;
54458;SDS011;40368;49.350;8.152;2024-03-17T04:23:47;19;;;29;;
54458;SDS011;40368;49.350;8.152;2024-03-17T04:24:48;19;;;51;;
54458;SDS011;40368;49.350;8.152;2024-03-17T04:25:47;16;;;47;;
54458;SDS011;40368;49.350;8.152;2024-03-17T04:26:47;18;;;38;;
54458;SDS011;40368;49.350;8.152;2024-03-17T04:27:47;18;;;32;;
54458;SDS011;40368;49.350;8.152;2024-03-17T04:28:47;16;;;41;;
54458;SDS011;40368;49.350;8.152;2024-03-17T04:29:47;17;;;41;;
54458;SDS011;40368;49.350;8.152;2024-03-17T04:30:47;19;;;36;;
54458;SDS011;40368;49.350;8.152;2024-03-17T04:31:47;20;;;45;;
54458;SDS011;40368;49.350;8.152;2024-03-17T04:32:47;16;;;35;;
54458;SDS011;40368;49.350;8.152;2024-03-17T04:33:47;18;;;32;;
54458;SDS011;40368;49.350;8.152;2024-03-17T04:34:47;16;;;21;;
54458;SDS011;40368;49.350;8.152;2024-03-17T04:35:47;17;;;33;;
54458;SDS011;40368;49.350;8.152;2024-03-17T04:36:47;19;;;54;;
54458;SDS011;40368;49.350;8.152;2024-03-17T04:37:47;20;;;46;;
54458;SDS011;40368;49.350;8.152;2024-03-17T04:38:47;16;;;28;;
54458;SDS011;40368;49.350;8.152;2024-03-17T04:39:47;18;;;40;;
54458;SDS011;40368;49.350;8.152;2024-03-17T04:40:47;16;;;23;;
54458;SDS011;40368;49.350;8.152;2024-03-17T04:41:47;17;;;42;;
54458;SDS011;40368;49.350;8.152;2024-03-17T04:42:47;16;;;33;;
54458;SDS011;40368;49.350;8.152;2024-03-17T04:43:47;18;;;29;;
54458;SDS011;40368;49.350;8.152;2024-03-17T04:44:53;18;;;25;;
54458;SDS011;40368;49.350;8.152;2024-03-17T04:45:47;17;;;38;;
54458;SDS011;40368;49.350;8.152;2024-03-17T04:46:47;17;;;40;;
54458;SDS011;40368;49.350;8.152;2024-03-17T04:47:47;20;;;34;;
54458;SDS011;40368;49.350;8.152;2024-03-17T04:48:47;16;;;30;;
54458;SDS011;40368;49.350;8.152;2024-03-17T04:49:47;18;;;62;;
54458;SDS011;40368;49.350;8.152;2024-03-17T04:50:47;15;;;23;;
54458;SDS011;40368;49.350;8.152;2024-03-17T04:51:47;17;;;30;;
54458;SDS011;40368;49.350;8.152;2024-03-17T04:52:47;18;;;29;;
54458;SDS011;40368;49.350;8.152;2024-03-17T04:53:47;20;;;37;;
54458;SDS011;40368;49.350;8.152;2024-03-17T04:54:47;20;;;45;;
54458;SDS011;40368;49.350;8.152;2024-03-17T04:55:47;22;;;46;;
54458;SDS011;40368;49.350;8.152;2024-03-17T04:56:48;18;;;31;;
54458;SDS011;40368;49.350;8.152;2024-03-17T04:57:47;19;;;39;;
54458;SDS011;40368;49.350;8.152;2024-03-17T04:58:47;17;;;38;;
54458;SDS011;40368;49.350;8.152;2024-03-17T04:59:47;16;;;27;;
54458;SDS011;40368;49.350;8.152;2024-03-17T05:00:47;17;;;24;;
54458;SDS011;40368;49.350;8.152;2024-03-17T05:01:47;18;;;45;;
54458;SDS011;40368;49.350;8.152;2024-03-17T05:02:47;19;;;28;;
54458;SDS011;40368;49.350;8.152;2024-03-17T05:03:48;20;;;42;;
54458;SDS011;40368;49.350;8.152;2024-03-17T05:04:47;19;;;30;;
54458;SDS011;40368;49.350;8.152;2024-03-17T05:05:47;17;;;49;;
54458;SDS011;40368;49.350;8.152;2024-03-17T05:06:48;18;;;25;;
54458;SDS011;40368;49.350;8.152;2024-03-17T05:07:47;17;;;28;;
54458;SDS011;40368;49.350;8.152;2024-03-17T05:08:47;19;;;42;;
54458;SDS011;40368;49.350;8.152;2024-03-17T05:09:47;18;;;32;;
54458;SDS011;40368;49.350;8.152;2024-03-17T05:10:47;17;;;52;;
54458;SDS011;40368;49.350;8.152;2024-03-17T05:11:47;18;;;38;;
54458;SDS011;40368;49.350;8.152;2024-03-17T05:12:47;16;;;29;;
54458;SDS011;40368;49.350;8.152;2024-03-17T05:13:47;17;;;26;;
54458;SDS011;40368;49.350;8.152;2024-03-17T05:14:47;16;;;28;;
54458;SDS011;40368;49.350;8.152;2024-03-17T05:15:47;17;;;34;;
54458;SDS011;40368;49.350;8.152;2024-03-17T05:16:48;17;;;27;;
54458;SDS011;40368;49.350;8.152;2024-03-17T05:17:47;17;;;42;;
54458;SDS011;40368;49.350;8.152;2024-03-17T05:18:48;19;;;35;;
54458;SDS011;40368;49.350;8.152;2024-03-17T05:19:47;17;;;36;;
54458;SDS011;40368;49.350;8.152;2024-03-17T05:20:47;16;;;38;;
54458;SDS011;40368;49.350;8.152;2024-03-17T05:21:47;17;;;25;;
54458;SDS011;40368;49.350;8.152;2024-03-17T05:22:48;16;;;39;;
54458;SDS011;40368;49.350;8.152;2024-03-17T05:23:47;18;;;31;;
54458;SDS011;40368;49.350;8.152;2024-03-17T05:24:47;16;;;29;;
54458;SDS011;40368;49.350;8.152;2024-03-17T05:25:50;17;;;40;;
54458;SDS011;40368;49.350;8.152;2024-03-17T05:26:47;15;;;22;;
54458;SDS011;40368;49.350;8.152;2024-03-17T05:27:47;17;;;45;;
54458;SDS011;40368;49.350;8.152;2024-03-17T05:28:47;17;;;30;;
54458;SDS011;40368;49.350;8.152;2024-03-17T05:29:47;15;;;23;;
54458;SDS011;40368;49.350;8.152;2024-03-17T05:30:47;16;;;42;;
54458;SDS011;40368;49.350;8.152;2024-03-17T05:31:48;18;;;35;;
54458;SDS011;40368;49.350;8.152;2024-03-17T05:32:47;17;;;44;;
54458;SDS011;40368;49.350;8.152;2024-03-17T05:33:47;17;;;40;;
54458;SDS011;40368;49.350;8.152;2024-03-17T05:34:47;16;;;27;;
54458;SDS011;40368;49.350;8.152;2024-03-17T05:35:48;16;;;33;;
54458;SDS011;40368;49.350;8.152;2024-03-17T05:36:47;18;;;50;;
54458;SDS011;40368;49.350;8.152;2024-03-17T05:37:48;16;;;23;;
54458;SDS011;40368;49.350;8.152;2024-03-17T05:38:47;18;;;43;;
54458;SDS011;40368;49.350;8.152;2024-03-17T05:39:47;16;;;20;;
54458;SDS011;40368;49.350;8.152;2024-03-17T05:40:55;16;;;21;;
54458;SDS011;40368;49.350;8.152;2024-03-17T05:41:47;18;;;30;;
54458;SDS011;40368;49.350;8.152;2024-03-17T05:42:47;17;;;32;;
54458;SDS011;40368;49.350;8.152;2024-03-17T05:43:47;17;;;40;;
54458;SDS011;40368;49.350;8.152;2024-03-17T05:45:47;18;;;34;;
54458;SDS011;40368;49.350;8.152;2024-03-17T05:46:47;18;;;28;;
54458;SDS011;40368;49.350;8.152;2024-03-17T05:47:49;16;;;34;;
54458;SDS011;40368;49.350;8.152;2024-03-17T05:48:47;17;;;75;;
54458;SDS011;40368;49.350;8.152;2024-03-17T05:49:47;18;;;42;;
54458;SDS011;40368;49.350;8.152;2024-03-17T05:50:47;18;;;43;;
54458;SDS011;40368;49.350;8.152;2024-03-17T05:51:47;17;;;31;;
54458;SDS011;40368;49.350;8.152;2024-03-17T05:52:47;17;;;27;;
54458;SDS011;40368;49.350;8.152;2024-03-17T05:53:47;18;;;36;;
54458;SDS011;40368;49.350;8.152;2024-03-17T05:54:47;18;;;35;;
54458;SDS011;40368;49.350;8.152;2024-03-17T05:55:47;17;;;31;;
54458;SDS011;40368;49.350;8.152;2024-03-17T05:56:47;20;;;37;;
54458;SDS011;40368;49.350;8.152;2024-03-17T05:57:47;24;;;42;;
54458;SDS011;40368;49.350;8.152;2024-03-17T05:58:47;21;;;40;;
54458;SDS011;40368;49.350;8.152;2024-03-17T05:59:47;18;;;59;;
54458;SDS011;40368;49.350;8.152;2024-03-17T06:00:47;19;;;35;;
54458;SDS011;40368;49.350;8.152;2024-03-17T06:01:47;24;;;47;;
54458;SDS011;40368;49.350;8.152;2024-03-17T06:02:47;19;;;36;;
54458;SDS011;40368;49.350;8.152;2024-03-17T06:03:47;19;;;44;;
54458;SDS011;40368;49.350;8.152;2024-03-17T06:04:47;18;;;30;;
54458;SDS011;40368;49.350;8.152;2024-03-17T06:05:47;20;;;30;;
54458;SDS011;40368;49.350;8.152;2024-03-17T06:06:47;24;;;40;;
54458;SDS011;40368;49.350;8.152;2024-03-17T06:07:47;21;;;53;;
54458;SDS011;40368;49.350;8.152;2024-03-17T06:08:47;22;;;51;;
54458;SDS011;40368;49.350;8.152;2024-03-17T06:09:47;18;;;27;;
54458;SDS011;40368;49.350;8.152;2024-03-17T06:10:48;21;;;46;;
54458;SDS011;40368;49.350;8.152;2024-03-17T06:11:47;19;;;33;;
54458;SDS011;40368;49.350;8.152;2024-03-17T06:12:47;19;;;43;;
54458;SDS011;40368;49.350;8.152;2024-03-17T06:13:47;18;;;40;;
54458;SDS011;40368;49.350;8.152;2024-03-17T06:14:47;19;;;45;;
54458;SDS011;40368;49.350;8.152;2024-03-17T06:15:47;21;;;49;;
54458;SDS011;40368;49.350;8.152;2024-03-17T06:16:47;20;;;49;;
54458;SDS011;40368;49.350;8.152;2024-03-17T06:17:47;21;;;41;;
54458;SDS011;40368;49.350;8.152;2024-03-17T06:18:47;22;;;48;;
54458;SDS011;40368;49.350;8.152;2024-03-17T06:19:47;20;;;37;;
54458;SDS011;40368;49.350;8.152;2024-03-17T06:20:47;20;;;34;;
54458;SDS011;40368;49.350;8.152;2024-03-17T06:21:47;18;;;38;;
54458;SDS011;40368;49.350;8.152;2024-03-17T06:22:47;19;;;31;;
54458;SDS011;40368;49.350;8.152;2024-03-17T06:23:47;18;;;57;;
54458;SDS011;40368;49.350;8.152;2024-03-17T06:24:47;19;;;30;;
54458;SDS011;40368;49.350;8.152;2024-03-17T06:25:48;20;;;44;;
54458;SDS011;40368;49.350;8.152;2024-03-17T06:26:48;19;;;30;;
54458;SDS011;40368;49.350;8.152;2024-03-17T06:27:47;22;;;55;;